Time;durP1;ratioP1;P1;durP2;ratioP2;P2;SDS_P1;SDS_P2;PMS_P1;PMS_P2;Temp;Humidity;BMP_temperature;BMP_pressure;BME280_temperature;BME280_humidity;BME280_pressure;Samples;Min_cycle;Max_cycle;Signal;HPM_P1;HPM_P2
2023/01/21 00:01:52;;;;;;;60.77;24.20;;;;;;;;;;5050229;28;20059;-61
2023/01/21 00:04:18;;;;;;;65.80;23.97;;;;;;;;;;5050215;28;20329;-61
2023/01/21 00:06:44;;;;;;;58.27;22.30;;;;;;;;;;5049790;28;20302;-61
2023/01/21 00:09:11;;;;;;;58.83;23.30;;;;;;;;;;5049847;28;20310;-61
2023/01/21 00:11:37;;;;;;;65.10;24.23;;;;;;;;;;5049757;28;20307;-61
2023/01/21 00:14:03;;;;;;;59.80;22.33;;;;;;;;;;5064315;28;20302;-60
2023/01/21 00:16:29;;;;;;;73.83;26.23;;;;;;;;;;5067611;28;20290;-61
2023/01/21 00:18:56;;;;;;;68.00;25.90;;;;;;;;;;5067810;28;20439;-61
2023/01/21 00:21:22;;;;;;;65.17;25.60;;;;;;;;;;5068202;28;20043;-61
2023/01/21 00:23:48;;;;;;;59.90;22.53;;;;;;;;;;5057302;28;20314;-61
2023/01/21 00:26:14;;;;;;;62.80;23.30;;;;;;;;;;5069539;28;20275;-61
2023/01/21 00:28:45;;;;;;;59.73;22.10;;;;;;;;;;5068259;28;20287;-61
2023/01/21 00:31:11;;;;;;;64.50;22.20;;;;;;;;;;5049483;28;20423;-61
2023/01/21 00:33:37;;;;;;;61.03;21.63;;;;;;;;;;5049242;28;20322;-61
2023/01/21 00:36:08;;;;;;;57.70;21.90;;;;;;;;;;5049665;28;20307;-61
2023/01/21 00:38:34;;;;;;;54.70;21.13;;;;;;;;;;5049211;28;20302;-61
2023/01/21 00:41:04;;;;;;;55.30;20.17;;;;;;;;;;5049274;28;20805;-61
2023/01/21 00:43:31;;;;;;;53.23;21.47;;;;;;;;;;5048072;28;20394;-61
2023/01/21 00:45:57;;;;;;;55.17;21.07;;;;;;;;;;5061079;28;20302;-60
2023/01/21 00:48:23;;;;;;;51.40;21.40;;;;;;;;;;5069223;28;20658;-61
2023/01/21 00:50:50;;;;;;;58.27;21.47;;;;;;;;;;5068848;28;20322;-60
2023/01/21 00:53:19;;;;;;;62.77;22.87;;;;;;;;;;5067830;28;20343;-60
2023/01/21 00:55:45;;;;;;;63.73;23.73;;;;;;;;;;5068379;28;20677;-60
2023/01/21 00:58:11;;;;;;;71.30;25.60;;;;;;;;;;5067654;28;21117;-60
2023/01/21 01:00:37;;;;;;;75.40;29.77;;;;;;;;;;5068302;28;21091;-61
2023/01/21 01:03:03;;;;;;;76.90;27.80;;;;;;;;;;5069006;28;20294;-61
2023/01/21 01:05:29;;;;;;;71.40;25.70;;;;;;;;;;5069167;28;20287;-60
2023/01/21 01:07:55;;;;;;;81.10;32.00;;;;;;;;;;5068778;28;20290;-60
2023/01/21 01:10:22;;;;;;;89.40;31.27;;;;;;;;;;5068714;28;20645;-61
2023/01/21 01:12:49;;;;;;;88.80;34.53;;;;;;;;;;5054316;28;20711;-61
2023/01/21 01:15:15;;;;;;;96.57;31.13;;;;;;;;;;5068730;28;20787;-61
2023/01/21 01:17:42;;;;;;;91.83;31.03;;;;;;;;;;5068717;28;20287;-60
2023/01/21 01:20:08;;;;;;;83.87;29.23;;;;;;;;;;5068798;28;20856;-61
2023/01/21 01:22:34;;;;;;;82.57;30.07;;;;;;;;;;5068719;28;20291;-61
2023/01/21 01:25:00;;;;;;;82.13;28.97;;;;;;;;;;5067891;28;20287;-61
2023/01/21 01:27:26;;;;;;;90.63;30.33;;;;;;;;;;5068456;28;20282;-61
2023/01/21 01:29:52;;;;;;;97.23;32.47;;;;;;;;;;5068534;28;20286;-61
2023/01/21 01:32:18;;;;;;;99.00;33.67;;;;;;;;;;5067931;28;20055;-61
2023/01/21 01:34:45;;;;;;;102.50;31.93;;;;;;;;;;5068107;28;20302;-61
2023/01/21 01:37:11;;;;;;;93.53;31.57;;;;;;;;;;5068486;28;20344;-61
2023/01/21 01:39:37;;;;;;;103.60;33.60;;;;;;;;;;5059963;28;20306;-61
2023/01/21 01:42:03;;;;;;;98.07;33.10;;;;;;;;;;5047801;28;20518;-61
2023/01/21 01:44:54;;;;;;;105.57;34.73;;;;;;;;;;5047971;28;20291;-61
2023/01/21 01:47:21;;;;;;;94.93;33.67;;;;;;;;;;5047990;28;20306;-61
2023/01/21 01:49:47;;;;;;;93.77;30.97;;;;;;;;;;5048082;28;20296;-61
2023/01/21 01:52:14;;;;;;;109.07;33.97;;;;;;;;;;5047777;28;20279;-61
2023/01/21 01:54:48;;;;;;;104.70;34.83;;;;;;;;;;5048181;28;20392;-60
2023/01/21 01:57:15;;;;;;;108.93;37.70;;;;;;;;;;5047762;28;20296;-61
2023/01/21 01:59:42;;;;;;;104.60;32.50;;;;;;;;;;5047822;28;20684;-61
2023/01/21 02:02:10;;;;;;;103.67;31.23;;;;;;;;;;5048089;28;20280;-61
2023/01/21 02:04:48;;;;;;;112.37;34.53;;;;;;;;;;5048097;28;20280;-61
2023/01/21 02:07:15;;;;;;;105.03;34.80;;;;;;;;;;5048352;28;20306;-61
2023/01/21 02:09:41;;;;;;;105.20;32.80;;;;;;;;;;5048699;28;20288;-61
2023/01/21 02:12:07;;;;;;;100.47;33.77;;;;;;;;;;5048161;28;20279;-60
2023/01/21 02:14:41;;;;;;;111.57;34.17;;;;;;;;;;5048250;28;20696;-61
2023/01/21 02:17:07;;;;;;;;;;;;;;;;;;5048633;28;20295;-61
2023/01/21 02:19:33;;;;;;;106.97;34.40;;;;;;;;;;5048275;28;20637;-60
2023/01/21 02:22:08;;;;;;;113.50;34.53;;;;;;;;;;5047868;28;20422;-61
2023/01/21 02:24:52;;;;;;;106.23;34.67;;;;;;;;;;5048249;28;20295;-61
2023/01/21 02:27:18;;;;;;;110.07;34.07;;;;;;;;;;5048150;28;20287;-61
2023/01/21 02:29:56;;;;;;;118.47;36.50;;;;;;;;;;5047481;28;20275;-61
2023/01/21 02:32:22;;;;;;;103.97;33.63;;;;;;;;;;5046887;28;20654;-61
2023/01/21 02:35:09;;;;;;;110.43;33.77;;;;;;;;;;5047488;28;20813;-61
2023/01/21 02:37:44;;;;;;;99.37;32.57;;;;;;;;;;5047901;28;20283;-61
2023/01/21 02:40:13;;;;;;;97.53;33.63;;;;;;;;;;5057695;28;21102;-61
2023/01/21 02:42:45;;;;;;;104.40;34.03;;;;;;;;;;5052122;28;20283;-60
2023/01/21 02:45:11;;;;;;;100.22;32.72;;;;;;;;;;5051781;28;20809;-61
2023/01/21 02:48:04;;;;;;;117.97;34.43;;;;;;;;;;5050368;28;20049;-60
2023/01/21 02:50:32;;;;;;;99.87;31.27;;;;;;;;;;5040681;28;20578;-60
2023/01/21 02:52:59;;;;;;;107.87;33.37;;;;;;;;;;5051483;28;20848;-62
2023/01/21 02:55:34;;;;;;;112.17;34.67;;;;;;;;;;5051692;28;20386;-61
2023/01/21 02:58:03;;;;;;;108.93;32.20;;;;;;;;;;5051537;28;20280;-62
2023/01/21 03:00:34;;;;;;;109.83;32.50;;;;;;;;;;5066417;28;20310;-59
2023/01/21 03:03:00;;;;;;;112.43;32.50;;;;;;;;;;5071272;28;20653;-60
2023/01/21 03:05:44;;;;;;;121.87;36.03;;;;;;;;;;5071620;28;20291;-59
2023/01/21 03:08:29;;;;;;;115.87;32.37;;;;;;;;;;5071568;28;20045;-60
2023/01/21 03:11:00;;;;;;;121.07;35.03;;;;;;;;;;5071076;28;20319;-60
2023/01/21 03:19:17;;;;;;;108.47;34.25;;;;;;;;;;5071370;28;19973;-61
2023/01/21 03:21:43;;;;;;;111.07;36.63;;;;;;;;;;5071700;28;20048;-61
2023/01/21 03:24:11;;;;;;;142.60;38.37;;;;;;;;;;5071307;28;20852;-61
2023/01/21 03:26:39;;;;;;;140.10;37.50;;;;;;;;;;5070845;28;20311;-61
2023/01/21 03:29:09;;;;;;;139.53;40.50;;;;;;;;;;5069913;28;20378;-61
2023/01/21 03:31:36;;;;;;;144.40;41.23;;;;;;;;;;5071169;28;20326;-61
2023/01/21 03:34:05;;;;;;;138.37;39.07;;;;;;;;;;5070805;28;20278;-61
2023/01/21 03:36:31;;;;;;;123.00;36.37;;;;;;;;;;5071078;28;20283;-61
2023/01/21 03:38:58;;;;;;;148.57;41.97;;;;;;;;;;5069981;28;20364;-61
2023/01/21 03:41:30;;;;;;;143.17;37.27;;;;;;;;;;5071242;28;20048;-60
2023/01/21 03:43:57;;;;;;;136.10;35.00;;;;;;;;;;5069732;28;21002;-61
2023/01/21 03:46:41;;;;;;;141.77;39.57;;;;;;;;;;5070875;28;20370;-61
2023/01/21 03:49:13;;;;;;;130.67;35.23;;;;;;;;;;5070071;28;20469;-61
2023/01/21 03:51:41;;;;;;;137.55;38.42;;;;;;;;;;5071001;28;20871;-61
2023/01/21 03:54:07;;;;;;;139.40;38.60;;;;;;;;;;5052553;28;20136;-61
2023/01/21 03:56:33;;;;;;;133.93;38.63;;;;;;;;;;5050866;28;20288;-61
2023/01/21 03:58:59;;;;;;;128.67;37.90;;;;;;;;;;5050548;28;20279;-61
2023/01/21 04:01:25;;;;;;;136.87;38.30;;;;;;;;;;5050662;28;20333;-61
2023/01/21 04:03:51;;;;;;;130.30;38.27;;;;;;;;;;5050710;28;20275;-61
2023/01/21 04:06:21;;;;;;;121.03;37.27;;;;;;;;;;5050209;28;20396;-61
2023/01/21 04:08:47;;;;;;;123.97;37.43;;;;;;;;;;5050701;28;20080;-61
2023/01/21 04:11:14;;;;;;;135.53;40.13;;;;;;;;;;5068111;28;20868;-61
2023/01/21 04:13:40;;;;;;;135.30;41.70;;;;;;;;;;5070619;28;20302;-61
2023/01/21 04:16:06;;;;;;;117.63;36.27;;;;;;;;;;5068754;28;20866;-61
2023/01/21 04:18:32;;;;;;;141.53;39.80;;;;;;;;;;5070029;28;20283;-61
2023/01/21 04:20:58;;;;;;;131.47;39.87;;;;;;;;;;5070290;28;20279;-61
2023/01/21 04:23:25;;;;;;;123.90;40.50;;;;;;;;;;5070327;28;20285;-61
2023/01/21 04:25:51;;;;;;;122.10;39.50;;;;;;;;;;5070398;28;20289;-61
2023/01/21 04:28:18;;;;;;;128.40;37.13;;;;;;;;;;5064839;28;20303;-61
2023/01/21 04:30:46;;;;;;;112.43;37.80;;;;;;;;;;5050073;28;20283;-61
2023/01/21 04:33:12;;;;;;;123.00;40.70;;;;;;;;;;5050114;28;20290;-61
2023/01/21 04:35:38;;;;;;;132.70;39.57;;;;;;;;;;5050513;28;20678;-61
2023/01/21 04:38:04;;;;;;;115.97;37.67;;;;;;;;;;5049111;28;20654;-61
2023/01/21 04:40:30;;;;;;;142.50;40.13;;;;;;;;;;5050406;28;20314;-61
2023/01/21 04:42:56;;;;;;;121.97;40.03;;;;;;;;;;5049872;28;20276;-61
2023/01/21 04:45:22;;;;;;;115.17;39.63;;;;;;;;;;5049864;28;20283;-61
2023/01/21 04:47:48;;;;;;;109.70;35.07;;;;;;;;;;5049265;28;20280;-61
2023/01/21 04:50:15;;;;;;;138.67;41.67;;;;;;;;;;5061527;28;20324;-61
2023/01/21 04:52:41;;;;;;;128.83;37.53;;;;;;;;;;5069512;28;20377;-61
2023/01/21 04:55:09;;;;;;;125.67;39.27;;;;;;;;;;5069652;28;20860;-61
2023/01/21 04:57:36;;;;;;;124.40;39.67;;;;;;;;;;5068916;28;20287;-61
2023/01/21 05:00:04;;;;;;;130.67;43.20;;;;;;;;;;5068736;28;20763;-61
2023/01/21 05:02:30;;;;;;;132.53;39.70;;;;;;;;;;5069412;28;20676;-62
2023/01/21 05:04:56;;;;;;;132.03;41.03;;;;;;;;;;5069121;28;20302;-61
2023/01/21 05:07:22;;;;;;;135.13;42.00;;;;;;;;;;5069416;28;20286;-61
2023/01/21 05:09:48;;;;;;;122.03;41.00;;;;;;;;;;5068867;28;20278;-61
2023/01/21 05:12:15;;;;;;;115.40;39.77;;;;;;;;;;5066730;28;20394;-61
2023/01/21 05:14:41;;;;;;;126.33;38.33;;;;;;;;;;5048789;28;20851;-61
2023/01/21 05:17:07;;;;;;;113.47;38.33;;;;;;;;;;5048983;28;20722;-61
2023/01/21 05:19:33;;;;;;;110.47;37.73;;;;;;;;;;5049017;28;20382;-61
2023/01/21 05:21:59;;;;;;;123.60;37.33;;;;;;;;;;5048705;28;20318;-61
2023/01/21 05:24:25;;;;;;;121.57;41.83;;;;;;;;;;5049081;28;20720;-61
2023/01/21 05:26:51;;;;;;;117.37;39.60;;;;;;;;;;5048122;28;20903;-60
2023/01/21 05:29:17;;;;;;;115.87;36.40;;;;;;;;;;5048733;28;20366;-61
2023/01/21 05:31:43;;;;;;;128.20;36.60;;;;;;;;;;5048443;28;20786;-61
2023/01/21 05:34:12;;;;;;;123.70;37.37;;;;;;;;;;5048407;28;20280;-61
2023/01/21 05:36:38;;;;;;;128.30;40.93;;;;;;;;;;5048808;28;20288;-61
2023/01/21 05:39:04;;;;;;;108.90;36.73;;;;;;;;;;5063775;28;20880;-62
2023/01/21 05:41:30;;;;;;;127.03;38.37;;;;;;;;;;5052043;28;20868;-61
2023/01/21 05:43:56;;;;;;;126.27;38.87;;;;;;;;;;5047778;28;20339;-61
2023/01/21 05:46:22;;;;;;;125.37;35.20;;;;;;;;;;5048746;28;20294;-61
2023/01/21 05:48:49;;;;;;;103.43;34.00;;;;;;;;;;5048020;28;20291;-61
2023/01/21 05:51:15;;;;;;;128.30;33.50;;;;;;;;;;5047784;28;20358;-61
2023/01/21 05:53:41;;;;;;;103.80;31.27;;;;;;;;;;5048405;28;20341;-61
2023/01/21 05:56:07;;;;;;;104.63;29.90;;;;;;;;;;5048334;28;20295;-62
2023/01/21 05:58:33;;;;;;;122.43;32.00;;;;;;;;;;5047011;28;20052;-61
2023/01/21 06:00:59;;;;;;;106.13;29.37;;;;;;;;;;5048321;28;20288;-61
2023/01/21 06:03:25;;;;;;;115.67;31.27;;;;;;;;;;5047734;28;20323;-61
2023/01/21 06:05:51;;;;;;;121.17;31.10;;;;;;;;;;5047897;28;20323;-62
2023/01/21 06:08:18;;;;;;;134.53;33.37;;;;;;;;;;5048085;28;20299;-61
2023/01/21 06:10:44;;;;;;;138.67;31.67;;;;;;;;;;5048414;28;20296;-61
2023/01/21 06:13:13;;;;;;;133.43;36.17;;;;;;;;;;5052711;28;20646;-61
2023/01/21 06:15:39;;;;;;;121.27;32.67;;;;;;;;;;5051904;28;20315;-61
2023/01/21 06:18:06;;;;;;;137.60;31.37;;;;;;;;;;5052234;28;20326;-61
2023/01/21 06:20:32;;;;;;;115.63;30.53;;;;;;;;;;5052353;28;20318;-61
2023/01/21 06:22:58;;;;;;;121.87;30.70;;;;;;;;;;5052606;28;20333;-61
2023/01/21 06:25:25;;;;;;;120.03;30.50;;;;;;;;;;5052478;28;21063;-61
2023/01/21 06:27:53;;;;;;;115.53;30.17;;;;;;;;;;5052145;28;21005;-61
2023/01/21 06:30:19;;;;;;;130.60;31.70;;;;;;;;;;5065768;28;20884;-61
2023/01/21 06:32:45;;;;;;;133.43;30.90;;;;;;;;;;5066374;28;20299;-61
2023/01/21 06:35:11;;;;;;;119.67;31.53;;;;;;;;;;5057349;28;20322;-61
2023/01/21 06:37:37;;;;;;;114.17;29.63;;;;;;;;;;5051656;28;20811;-61
2023/01/21 06:40:04;;;;;;;116.47;31.77;;;;;;;;;;5051836;28;20287;-61
2023/01/21 06:42:30;;;;;;;101.30;28.07;;;;;;;;;;5052065;28;20283;-61
2023/01/21 06:44:56;;;;;;;114.23;29.43;;;;;;;;;;5051675;28;20280;-61
2023/01/21 06:47:22;;;;;;;109.37;26.43;;;;;;;;;;5051495;28;20322;-61
2023/01/21 06:49:48;;;;;;;116.80;29.43;;;;;;;;;;5051782;28;20283;-61
2023/01/21 06:52:14;;;;;;;100.50;28.80;;;;;;;;;;5050846;28;20287;-61
2023/01/21 06:54:42;;;;;;;97.50;28.20;;;;;;;;;;5050540;28;20307;-61
2023/01/21 06:57:08;;;;;;;122.40;28.70;;;;;;;;;;5051620;28;20793;-61
2023/01/21 06:59:34;;;;;;;111.03;30.30;;;;;;;;;;5051240;28;21209;-61
2023/01/21 07:02:00;;;;;;;120.77;31.03;;;;;;;;;;5071295;28;20295;-61
2023/01/21 07:04:26;;;;;;;104.97;28.37;;;;;;;;;;5071730;28;20664;-61
2023/01/21 07:06:53;;;;;;;113.27;29.17;;;;;;;;;;5071629;28;20778;-62
2023/01/21 07:09:19;;;;;;;99.43;28.40;;;;;;;;;;5071825;28;20279;-61
2023/01/21 07:11:45;;;;;;;104.53;28.50;;;;;;;;;;5071287;28;20796;-62
2023/01/21 07:14:11;;;;;;;108.03;29.57;;;;;;;;;;5053949;28;20304;-61
2023/01/21 07:16:37;;;;;;;116.60;30.43;;;;;;;;;;5051561;28;20284;-61
2023/01/21 07:19:03;;;;;;;120.33;30.17;;;;;;;;;;5051168;28;20928;-61
2023/01/21 07:21:29;;;;;;;121.27;31.33;;;;;;;;;;5049821;28;20357;-61
2023/01/21 07:23:55;;;;;;;118.57;28.87;;;;;;;;;;5048922;28;20693;-61
2023/01/21 07:26:22;;;;;;;119.50;29.27;;;;;;;;;;5049858;28;20322;-61
2023/01/21 07:28:48;;;;;;;138.03;33.73;;;;;;;;;;5055364;28;20299;-62
2023/01/21 07:31:14;;;;;;;167.67;36.67;;;;;;;;;;5059662;28;20287;-61
2023/01/21 07:33:40;;;;;;;148.60;34.40;;;;;;;;;;5061675;28;20279;-61
2023/01/21 07:36:07;;;;;;;170.10;37.97;;;;;;;;;;5058278;28;20369;-61
2023/01/21 07:38:33;;;;;;;416.83;56.93;;;;;;;;;;5060042;28;20278;-60
2023/01/21 07:40:59;;;;;;;364.60;53.27;;;;;;;;;;5059315;28;20310;-60
2023/01/21 07:43:26;;;;;;;152.90;34.87;;;;;;;;;;5058578;28;20899;-61
2023/01/21 07:45:53;;;;;;;126.13;32.33;;;;;;;;;;5060560;28;20729;-62
2023/01/21 07:48:19;;;;;;;153.30;35.07;;;;;;;;;;5059223;28;20337;-62
2023/01/21 07:50:45;;;;;;;176.97;39.23;;;;;;;;;;5060619;28;20345;-62
2023/01/21 07:53:12;;;;;;;125.87;33.13;;;;;;;;;;5056174;28;20376;-61
2023/01/21 07:55:38;;;;;;;160.27;35.60;;;;;;;;;;5060181;28;20307;-61
2023/01/21 07:58:04;;;;;;;173.10;36.50;;;;;;;;;;5058884;28;20330;-61
2023/01/21 08:00:30;;;;;;;143.07;32.10;;;;;;;;;;5067497;28;20283;-61
2023/01/21 08:02:57;;;;;;;160.03;35.90;;;;;;;;;;5070261;28;20274;-61
2023/01/21 08:05:24;;;;;;;137.50;33.20;;;;;;;;;;5070248;28;20808;-61
2023/01/21 08:07:50;;;;;;;135.00;32.63;;;;;;;;;;5052957;28;20844;-61
2023/01/21 08:10:17;;;;;;;133.30;34.83;;;;;;;;;;5067234;28;20712;-61
2023/01/21 08:12:43;;;;;;;118.70;31.57;;;;;;;;;;5070157;28;20283;-61
2023/01/21 08:15:09;;;;;;;144.20;33.40;;;;;;;;;;5049721;28;20804;-61
2023/01/21 08:17:39;;;;;;;126.70;31.37;;;;;;;;;;5056265;28;20298;-61
2023/01/21 08:20:05;;;;;;;120.57;31.00;;;;;;;;;;5070045;28;20770;-61
2023/01/21 08:22:31;;;;;;;136.77;32.57;;;;;;;;;;5066919;28;20328;-61
2023/01/21 08:24:57;;;;;;;108.53;29.77;;;;;;;;;;5069471;28;20279;-61
2023/01/21 08:27:23;;;;;;;140.83;32.17;;;;;;;;;;5061808;28;20293;-60
2023/01/21 08:29:49;;;;;;;105.73;28.50;;;;;;;;;;5055863;28;20037;-61
2023/01/21 08:32:16;;;;;;;126.40;32.53;;;;;;;;;;5049166;28;20306;-61
2023/01/21 08:34:42;;;;;;;113.87;28.63;;;;;;;;;;5048541;28;20342;-61
2023/01/21 08:37:08;;;;;;;109.53;28.73;;;;;;;;;;5048705;28;20294;-61
2023/01/21 08:39:34;;;;;;;106.27;29.00;;;;;;;;;;5049347;28;20052;-61
2023/01/21 08:42:00;;;;;;;111.70;28.87;;;;;;;;;;5048854;28;20287;-61
2023/01/21 08:44:26;;;;;;;107.97;31.80;;;;;;;;;;5049363;28;20140;-61
2023/01/21 08:46:52;;;;;;;106.67;29.40;;;;;;;;;;5048514;28;20055;-61
2023/01/21 08:49:18;;;;;;;133.73;32.70;;;;;;;;;;5049446;28;20352;-61
2023/01/21 08:51:44;;;;;;;111.77;32.20;;;;;;;;;;5049940;28;20695;-61
2023/01/21 08:54:10;;;;;;;128.50;33.00;;;;;;;;;;5057339;28;20294;-61
2023/01/21 08:56:36;;;;;;;118.73;32.47;;;;;;;;;;5056146;28;20383;-61
2023/01/21 08:59:02;;;;;;;139.03;33.93;;;;;;;;;;5058246;28;20283;-61
2023/01/21 09:01:28;;;;;;;132.47;32.47;;;;;;;;;;5057631;28;20280;-61
2023/01/21 09:04:03;;;;;;;122.67;33.57;;;;;;;;;;5056815;28;20275;-61
2023/01/21 09:06:29;;;;;;;124.97;33.30;;;;;;;;;;5057592;28;20091;-61
2023/01/21 09:08:57;;;;;;;135.63;33.97;;;;;;;;;;5056792;28;20600;-62
2023/01/21 09:11:23;;;;;;;114.10;31.13;;;;;;;;;;5056222;28;20341;-62
2023/01/21 09:13:49;;;;;;;117.87;31.90;;;;;;;;;;5057796;28;20326;-62
2023/01/21 09:16:16;;;;;;;167.47;37.20;;;;;;;;;;5058416;28;20312;-62
2023/01/21 09:18:42;;;;;;;117.93;30.63;;;;;;;;;;5056440;28;20375;-62
2023/01/21 09:21:09;;;;;;;109.03;30.43;;;;;;;;;;5057785;28;20657;-62
2023/01/21 09:23:36;;;;;;;166.87;33.90;;;;;;;;;;5056618;28;20822;-62
2023/01/21 09:26:12;;;;;;;108.43;31.00;;;;;;;;;;5056131;28;20523;-62
2023/01/21 09:28:41;;;;;;;91.87;31.50;;;;;;;;;;5056202;28;20979;-62
2023/01/21 09:31:08;;;;;;;114.90;31.20;;;;;;;;;;5057420;28;20200;-61
2023/01/21 09:33:35;;;;;;;123.47;32.97;;;;;;;;;;5057989;28;20283;-62
2023/01/21 09:36:02;;;;;;;145.40;32.93;;;;;;;;;;5049497;28;20315;-61
2023/01/21 09:38:28;;;;;;;142.27;33.53;;;;;;;;;;5047939;28;20547;-61
2023/01/21 09:40:56;;;;;;;116.80;34.00;;;;;;;;;;5047419;28;20785;-63
2023/01/21 09:43:43;;;;;;;114.10;30.83;;;;;;;;;;5054320;28;20283;-63
2023/01/21 09:46:14;;;;;;;127.40;34.93;;;;;;;;;;5057647;28;20891;-62
2023/01/21 09:48:43;;;;;;;118.07;34.27;;;;;;;;;;5056821;28;20320;-63
2023/01/21 09:51:28;;;;;;;107.50;32.20;;;;;;;;;;5056103;28;20573;-62
2023/01/21 09:53:55;;;;;;;120.97;34.10;;;;;;;;;;5058036;28;20362;-62
2023/01/21 09:56:31;;;;;;;186.13;40.83;;;;;;;;;;5055501;28;20044;-62
2023/01/21 09:59:03;;;;;;;129.17;34.97;;;;;;;;;;5054332;28;20052;-63
2023/01/21 10:01:33;;;;;;;113.07;36.33;;;;;;;;;;5053997;28;20120;-63
2023/01/21 10:04:26;;;;;;;119.03;34.57;;;;;;;;;;5056585;28;20048;-63
2023/01/21 10:07:02;;;;;;;132.83;36.40;;;;;;;;;;5056165;28;20073;-63
2023/01/21 10:09:34;;;;;;;111.60;34.67;;;;;;;;;;5055528;28;20410;-63
2023/01/21 10:12:10;;;;;;;106.43;31.43;;;;;;;;;;5055180;28;20517;-63
2023/01/21 10:14:39;;;;;;;109.60;35.80;;;;;;;;;;5053326;28;20322;-63
2023/01/21 10:17:13;;;;;;;102.33;33.13;;;;;;;;;;5057470;28;20374;-63
2023/01/21 10:19:51;;;;;;;117.43;36.50;;;;;;;;;;5054468;28;20056;-63
2023/01/21 10:22:19;;;;;;;109.73;32.77;;;;;;;;;;5056400;28;20041;-63
2023/01/21 10:24:48;;;;;;;103.67;32.00;;;;;;;;;;5056451;28;20294;-62
2023/01/21 10:27:19;;;;;;;104.40;34.30;;;;;;;;;;5057820;28;20424;-63
2023/01/21 10:29:47;;;;;;;89.20;31.30;;;;;;;;;;5056012;28;20038;-63
2023/01/21 10:32:16;;;;;;;102.53;32.77;;;;;;;;;;5053548;28;20094;-63
2023/01/21 10:35:08;;;;;;;104.77;33.90;;;;;;;;;;5057312;28;20524;-63
2023/01/21 10:37:42;;;;;;;101.20;32.07;;;;;;;;;;5055553;28;20462;-62
2023/01/21 10:40:41;;;;;;;91.50;29.37;;;;;;;;;;5057571;28;20039;-63
2023/01/21 10:43:06;;;;;;;85.73;29.27;;;;;;;;;;5055425;28;20055;-63
2023/01/21 10:45:40;;;;;;;86.13;30.40;;;;;;;;;;5040246;28;20040;-60
2023/01/21 10:48:25;;;;;;;83.93;31.20;;;;;;;;;;5054707;28;20061;-62
2023/01/21 10:51:14;;;;;;;75.60;27.97;;;;;;;;;;5055445;28;20052;-63
2023/01/21 10:54:02;;;;;;;93.83;31.53;;;;;;;;;;5056821;28;20041;-62
2023/01/21 10:56:38;;;;;;;85.17;30.67;;;;;;;;;;5055347;28;20045;-62
2023/01/21 10:59:19;;;;;;;73.40;27.33;;;;;;;;;;5056536;28;20550;-62
2023/01/21 11:01:47;;;;;;;78.23;29.67;;;;;;;;;;5059043;28;20053;-62
2023/01/21 11:04:13;;;;;;;78.93;28.70;;;;;;;;;;5060053;28;20056;-63
2023/01/21 11:06:39;;;;;;;78.30;29.90;;;;;;;;;;5060252;28;20032;-62
2023/01/21 11:09:08;;;;;;;70.80;27.23;;;;;;;;;;5059190;28;20045;-62
2023/01/21 11:11:36;;;;;;;62.23;27.93;;;;;;;;;;5060113;28;20471;-62
2023/01/21 11:14:02;;;;;;;57.77;25.17;;;;;;;;;;5058580;28;20044;-62
2023/01/21 11:16:31;;;;;;;59.47;28.37;;;;;;;;;;5061324;28;20051;-63
2023/01/21 11:18:57;;;;;;;58.90;25.43;;;;;;;;;;5059293;28;20135;-60
2023/01/21 11:21:24;;;;;;;49.87;24.47;;;;;;;;;;5059534;28;20522;-62
2023/01/21 11:23:57;;;;;;;44.93;23.40;;;;;;;;;;5059112;28;20463;-62
2023/01/21 11:26:26;;;;;;;40.55;23.02;;;;;;;;;;5059354;28;20120;-61
2023/01/21 11:29:07;;;;;;;42.57;23.80;;;;;;;;;;5059662;28;20127;-61
2023/01/21 11:31:34;;;;;;;37.70;21.50;;;;;;;;;;5058754;28;20041;-61
2023/01/21 11:34:19;;;;;;;34.63;20.47;;;;;;;;;;5059313;28;20411;-62
2023/01/21 11:37:08;;;;;;;37.17;21.17;;;;;;;;;;5060405;28;20032;-61
2023/01/21 11:39:36;;;;;;;32.67;19.80;;;;;;;;;;5053882;28;20053;-61
2023/01/21 11:42:15;;;;;;;32.10;19.93;;;;;;;;;;5056556;28;20054;-61
2023/01/21 11:44:52;;;;;;;32.93;19.77;;;;;;;;;;5059598;28;20041;-61
2023/01/21 11:47:29;;;;;;;33.47;19.27;;;;;;;;;;5058840;28;20044;-61
2023/01/21 11:50:01;;;;;;;33.70;19.60;;;;;;;;;;5064829;28;20375;-62
2023/01/21 11:52:27;;;;;;;32.80;20.67;;;;;;;;;;5060162;28;20080;-62
2023/01/21 11:54:53;;;;;;;31.93;18.57;;;;;;;;;;5058635;28;20063;-62
2023/01/21 11:57:25;;;;;;;25.13;16.97;;;;;;;;;;5058185;28;20510;-61
2023/01/21 11:59:53;;;;;;;26.90;17.70;;;;;;;;;;5050109;28;20052;-61
2023/01/21 12:02:21;;;;;;;28.73;17.67;;;;;;;;;;5049855;28;20450;-61
2023/01/21 12:04:53;;;;;;;26.37;17.27;;;;;;;;;;5050390;28;20060;-61
2023/01/21 12:07:25;;;;;;;27.77;16.50;;;;;;;;;;5051083;28;20471;-61
2023/01/21 12:09:57;;;;;;;23.53;15.70;;;;;;;;;;5049271;28;20107;-61
2023/01/21 12:12:30;;;;;;;26.50;16.35;;;;;;;;;;5049090;28;20191;-61
2023/01/21 12:15:03;;;;;;;22.50;15.30;;;;;;;;;;5061329;28;20048;-61
2023/01/21 12:17:35;;;;;;;24.92;16.05;;;;;;;;;;5068991;28;20047;-61
2023/01/21 12:20:20;;;;;;;25.63;15.97;;;;;;;;;;5069773;28;20052;-61
2023/01/21 12:23:09;;;;;;;24.77;16.30;;;;;;;;;;5069260;28;20449;-61
2023/01/21 12:25:42;;;;;;;24.73;16.03;;;;;;;;;;5063468;28;20109;-61
2023/01/21 12:28:11;;;;;;;23.83;16.03;;;;;;;;;;5067716;28;20160;-61
2023/01/21 12:30:51;;;;;;;23.73;16.07;;;;;;;;;;5067398;28;20653;-61
2023/01/21 12:33:32;;;;;;;26.23;15.83;;;;;;;;;;5067521;28;20114;-61
2023/01/21 12:36:04;;;;;;;22.50;14.50;;;;;;;;;;5053385;28;20045;-61
2023/01/21 12:38:33;;;;;;;23.90;15.77;;;;;;;;;;5063448;28;20044;-61
2023/01/21 12:41:08;;;;;;;24.40;15.47;;;;;;;;;;5064146;28;20433;-61
2023/01/21 12:43:36;;;;;;;22.60;15.50;;;;;;;;;;5060356;28;20048;-61
2023/01/21 12:46:09;;;;;;;24.73;15.73;;;;;;;;;;5068341;28;20045;-61
2023/01/21 12:48:35;;;;;;;23.08;16.75;;;;;;;;;;5068385;28;20057;-61
2023/01/21 12:51:06;;;;;;;27.43;15.70;;;;;;;;;;5060055;28;20059;-61
2023/01/21 12:53:37;;;;;;;24.77;15.73;;;;;;;;;;5065189;28;20044;-61
2023/01/21 12:56:03;;;;;;;22.37;14.60;;;;;;;;;;5049954;28;20049;-61
2023/01/21 12:58:31;;;;;;;25.07;16.60;;;;;;;;;;5064328;28;20058;-61
2023/01/21 13:00:59;;;;;;;21.97;14.83;;;;;;;;;;5067050;28;20048;-61
2023/01/21 13:03:44;;;;;;;21.33;14.00;;;;;;;;;;5059066;28;20070;-61
2023/01/21 13:06:16;;;;;;;22.47;14.83;;;;;;;;;;5050839;28;20114;-61
2023/01/21 13:09:01;;;;;;;20.27;13.53;;;;;;;;;;5068678;28;20045;-61
2023/01/21 13:11:30;;;;;;;21.27;13.23;;;;;;;;;;5061065;28;20041;-61
2023/01/21 13:14:08;;;;;;;19.23;12.77;;;;;;;;;;5064433;28;20076;-61
2023/01/21 13:16:57;;;;;;;16.50;11.30;;;;;;;;;;5067505;28;20371;-61
2023/01/21 13:19:23;;;;;;;18.87;12.67;;;;;;;;;;5062427;28;20415;-61
2023/01/21 13:21:49;;;;;;;15.07;10.50;;;;;;;;;;5066079;28;20558;-61
2023/01/21 13:24:17;;;;;;;16.43;11.50;;;;;;;;;;5068427;28;20053;-61
2023/01/21 13:26:48;;;;;;;17.07;10.20;;;;;;;;;;5054342;28;20080;-61
2023/01/21 13:29:25;;;;;;;14.77;10.37;;;;;;;;;;5064727;28;20044;-61
2023/01/21 13:31:51;;;;;;;13.30;9.93;;;;;;;;;;5057116;28;20049;-61
2023/01/21 13:34:23;;;;;;;12.80;8.53;;;;;;;;;;5056665;28;20049;-61
2023/01/21 13:37:00;;;;;;;14.70;9.90;;;;;;;;;;5067420;28;20058;-61
2023/01/21 13:39:26;;;;;;;13.83;9.47;;;;;;;;;;5066365;28;20086;-61
2023/01/21 13:42:01;;;;;;;13.67;9.17;;;;;;;;;;5060214;28;20048;-61
2023/01/21 13:44:46;;;;;;;12.60;8.93;;;;;;;;;;5066110;28;20566;-61
2023/01/21 13:47:24;;;;;;;12.10;9.27;;;;;;;;;;5064370;28;20105;-61
2023/01/21 13:49:50;;;;;;;10.43;7.47;;;;;;;;;;5065398;28;20125;-61
2023/01/21 13:52:48;;;;;;;12.17;7.67;;;;;;;;;;5061917;28;20463;-61
2023/01/21 13:55:23;;;;;;;13.43;6.90;;;;;;;;;;5027398;28;20057;-61
2023/01/21 13:57:59;;;;;;;10.90;6.93;;;;;;;;;;5056924;28;20056;-61
2023/01/21 14:00:31;;;;;;;9.80;6.70;;;;;;;;;;5057673;28;20086;-61
2023/01/21 14:03:03;;;;;;;9.90;6.10;;;;;;;;;;5067328;28;20045;-61
2023/01/21 14:05:32;;;;;;;10.80;6.67;;;;;;;;;;5068022;28;20167;-61
2023/01/21 14:08:01;;;;;;;9.00;6.07;;;;;;;;;;5067870;28;20169;-61
2023/01/21 14:10:31;;;;;;;9.30;6.70;;;;;;;;;;5067225;28;20051;-61
2023/01/21 14:13:16;;;;;;;12.37;7.60;;;;;;;;;;5067618;28;20094;-61
2023/01/21 14:15:42;;;;;;;8.73;6.40;;;;;;;;;;5066261;28;20410;-61
2023/01/21 14:18:13;;;;;;;7.90;5.90;;;;;;;;;;5067101;28;20055;-61
2023/01/21 14:20:42;;;;;;;8.83;5.83;;;;;;;;;;5065553;28;20051;-61
2023/01/21 14:23:17;;;;;;;9.77;5.97;;;;;;;;;;5048653;28;20048;-61
2023/01/21 14:25:53;;;;;;;10.23;7.07;;;;;;;;;;5047531;28;20550;-61
2023/01/21 14:28:25;;;;;;;10.87;6.60;;;;;;;;;;5047212;28;20056;-61
2023/01/21 14:31:10;;;;;;;9.97;7.00;;;;;;;;;;5047496;28;20451;-61